createdAt,value
2023-02-03T00:04:20.708Z,11.48
2023-02-03T00:09:23.129Z,16.77
2023-02-03T00:14:25.399Z,13.27
2023-02-03T00:19:28.969Z,12.90
2023-02-03T00:24:31.157Z,10.43
2023-02-03T00:29:33.534Z,13.38
2023-02-03T00:34:37.245Z,21.00
2023-02-03T00:39:39.679Z,17.00
2023-02-03T00:44:42.043Z,11.57
2023-02-03T00:49:45.702Z,11.47
2023-02-03T00:54:48.027Z,12.40
2023-02-03T00:59:50.215Z,12.63
2023-02-03T01:04:53.756Z,9.80
2023-02-03T01:09:56.235Z,14.02
2023-02-03T01:14:59.173Z,13.40
2023-02-03T01:20:03.995Z,17.45
2023-02-03T01:25:07.500Z,15.52
2023-02-03T01:30:11.767Z,19.57
2023-02-03T01:35:15.769Z,14.07
2023-02-03T01:40:19.178Z,14.60
2023-02-03T01:45:21.626Z,15.55
2023-02-03T01:50:31.029Z,15.40
2023-02-03T01:55:39.478Z,16.13
2023-02-03T02:00:42.504Z,16.02
2023-02-03T02:05:53.552Z,16.87
2023-02-03T02:10:56.660Z,14.48
2023-02-03T02:16:07.939Z,14.27
2023-02-03T02:21:57.029Z,15.40
2023-02-03T02:27:09.767Z,13.88
2023-02-03T02:32:34.909Z,10.80
2023-02-03T02:37:50.631Z,10.73
2023-02-03T02:43:08.245Z,12.07
2023-02-03T02:48:21.433Z,11.33
2023-02-03T02:53:29.383Z,12.35
2023-02-03T02:58:35.319Z,12.33
2023-02-03T03:03:39.080Z,14.40
2023-02-03T03:08:49.191Z,11.60
2023-02-03T03:13:55.632Z,14.27
2023-02-03T03:19:05.431Z,10.55
2023-02-03T03:24:14.149Z,12.43
2023-02-03T03:29:22.875Z,11.05
2023-02-03T03:34:27.801Z,16.85
2023-02-03T03:39:42.780Z,12.27
2023-02-03T03:44:52.788Z,11.32
2023-02-03T03:50:01.303Z,9.97
2023-02-03T03:55:08.787Z,10.48
2023-02-03T04:00:17.438Z,9.80
2023-02-03T04:05:22.435Z,11.07
2023-02-03T04:10:32.767Z,10.90
2023-02-03T04:15:35.866Z,10.67
2023-02-03T04:20:39.484Z,9.27
2023-02-03T04:25:41.894Z,11.35
2023-02-03T04:30:44.414Z,10.90
2023-02-03T04:35:48.029Z,14.70
2023-02-03T04:40:50.361Z,12.03
2023-02-03T04:45:52.701Z,10.20
2023-02-03T04:51:01.197Z,10.95
2023-02-03T04:56:04.160Z,13.97
2023-02-03T05:01:08.728Z,13.68
2023-02-03T05:06:12.245Z,10.90
2023-02-03T05:11:14.393Z,11.57
2023-02-03T05:16:16.768Z,11.65
2023-02-03T05:21:20.819Z,9.63
2023-02-03T05:26:23.839Z,12.00
2023-02-03T05:31:26.084Z,13.63
2023-02-03T05:36:29.722Z,15.57
2023-02-03T05:41:32.043Z,13.85
2023-02-03T05:46:34.300Z,12.50
2023-02-03T05:51:39.375Z,11.93
2023-02-03T05:56:41.753Z,14.43
2023-02-03T06:01:44.046Z,11.40
2023-02-03T06:06:48.127Z,15.38
2023-02-03T06:11:50.336Z,12.17
2023-02-03T06:16:52.698Z,13.32
2023-02-03T06:21:56.269Z,11.87
2023-02-03T06:26:58.541Z,10.48
2023-02-03T06:32:00.960Z,13.57
2023-02-03T06:37:04.959Z,10.57
2023-02-03T06:42:07.529Z,12.00
2023-02-03T06:47:09.752Z,17.00
2023-02-03T06:52:13.551Z,12.30
2023-02-03T06:57:15.734Z,13.52
2023-02-03T07:02:18.715Z,12.00
2023-02-03T07:07:22.458Z,14.30
2023-02-03T07:12:24.933Z,12.53
2023-02-03T07:17:27.497Z,14.18
2023-02-03T07:22:31.183Z,12.60
2023-02-03T07:27:33.655Z,12.27
2023-02-03T07:32:36.119Z,11.15
2023-02-03T07:37:40.283Z,14.17
2023-02-03T07:42:43.899Z,13.20
2023-02-03T07:47:46.415Z,11.55
2023-02-03T07:52:52.329Z,14.07
2023-02-03T07:57:55.339Z,12.45
2023-02-03T08:02:57.637Z,16.30
2023-02-03T08:08:01.244Z,13.65
2023-02-03T08:13:03.622Z,13.70
2023-02-03T08:18:06.244Z,13.83
2023-02-03T08:23:10.055Z,13.07
2023-02-03T08:28:12.629Z,15.73
2023-02-03T08:33:15.071Z,11.98
2023-02-03T08:38:18.968Z,13.98
2023-02-03T08:43:21.454Z,12.87
2023-02-03T08:48:23.917Z,14.52
2023-02-03T08:53:29.840Z,12.10
2023-02-03T08:58:32.518Z,13.77
2023-02-03T09:03:35.122Z,13.68
2023-02-03T09:08:39.568Z,21.40
2023-02-03T09:13:42.618Z,19.65
2023-02-03T09:18:45.782Z,15.00
2023-02-03T09:23:49.470Z,15.35
2023-02-03T09:28:53.246Z,15.48
2023-02-03T09:33:55.817Z,16.63
2023-02-03T09:38:59.794Z,15.00
2023-02-03T09:44:14.263Z,17.38
2023-02-03T09:49:25.761Z,18.38
2023-02-03T09:54:42.718Z,17.63
2023-02-03T09:59:45.125Z,15.60
2023-02-03T10:04:58.753Z,15.20
2023-02-03T10:10:17.777Z,19.88
2023-02-03T10:15:46.023Z,17.20
2023-02-03T10:20:53.144Z,16.55
2023-02-03T10:26:01.257Z,17.67
2023-02-03T10:31:16.969Z,17.50
2023-02-03T10:36:31.398Z,15.63
2023-02-03T10:41:35.526Z,16.90
2023-02-03T10:46:41.452Z,21.02
2023-02-03T10:51:51.200Z,18.67
2023-02-03T10:57:01.636Z,15.60
2023-02-03T11:02:10.273Z,15.82
2023-02-03T11:07:26.419Z,14.27
2023-02-03T11:12:30.235Z,15.00
2023-02-03T11:17:36.936Z,14.87
2023-02-03T11:22:42.037Z,15.35
2023-02-03T11:27:47.014Z,13.02
2023-02-03T11:32:50.916Z,11.80
2023-02-03T11:37:55.884Z,14.73
2023-02-03T11:43:17.947Z,16.70
2023-02-03T11:48:31.220Z,14.18
2023-02-03T11:53:58.671Z,16.48
2023-02-03T11:59:34.128Z,15.35
2023-02-03T12:05:04.361Z,22.70
2023-02-03T12:10:21.566Z,17.97
2023-02-03T12:15:56.508Z,16.88
2023-02-03T12:21:17.155Z,15.27
2023-02-03T12:26:23.644Z,13.35
2023-02-03T12:31:38.567Z,12.13
2023-02-03T12:36:47.386Z,13.07
2023-02-03T12:41:59.807Z,13.02
2023-02-03T12:47:15.283Z,10.85
2023-02-03T12:52:25.065Z,10.70
2023-02-03T12:57:34.581Z,11.50
2023-02-03T13:02:54.986Z,10.80
2023-02-03T13:08:11.969Z,9.93
2023-02-03T13:13:23.233Z,11.25
2023-02-03T13:18:32.493Z,10.95
2023-02-03T13:23:34.910Z,10.43
2023-02-03T13:29:10.950Z,10.60
2023-02-03T13:34:37.066Z,10.73
2023-02-03T13:39:55.665Z,9.80
2023-02-03T13:45:08.221Z,8.18
2023-02-03T13:50:22.847Z,10.82
2023-02-03T13:55:33.447Z,10.23
2023-02-03T14:01:32.405Z,9.05
2023-02-03T14:07:02.477Z,7.38
2023-02-03T14:13:00.362Z,9.07
2023-02-03T14:18:20.110Z,9.27
2023-02-03T14:23:35.292Z,9.43
2023-02-03T14:28:42.411Z,9.30
2023-02-03T14:34:08.515Z,10.90
2023-02-03T14:40:11.774Z,10.95
2023-02-03T14:45:36.622Z,8.93
2023-02-03T14:50:59.388Z,12.10
2023-02-03T14:56:19.074Z,10.02
2023-02-03T15:01:47.815Z,9.30
2023-02-03T15:06:53.310Z,8.93
2023-02-03T15:11:56.907Z,9.70
2023-02-03T15:17:02.488Z,10.17
2023-02-03T15:22:20.176Z,10.55
2023-02-03T15:27:27.153Z,11.50
2023-02-03T15:32:36.724Z,10.35
2023-02-03T15:37:47.754Z,14.65
2023-02-03T15:43:00.109Z,11.30
2023-02-03T15:48:12.061Z,18.70
2023-02-03T15:53:22.302Z,12.50
2023-02-03T15:58:30.973Z,13.88
2023-02-03T16:03:39.608Z,15.10
2023-02-03T16:08:45.119Z,13.50
2023-02-03T16:13:49.162Z,17.88
2023-02-03T16:18:55.139Z,16.05
2023-02-03T16:23:57.968Z,23.75
2023-02-03T16:29:14.926Z,18.85
2023-02-03T16:34:19.549Z,17.33
2023-02-03T16:39:21.751Z,20.75
2023-02-03T16:44:25.269Z,20.67
2023-02-03T16:49:27.606Z,18.98
2023-02-03T16:54:29.789Z,22.73
2023-02-03T16:59:33.739Z,21.57
2023-02-03T17:04:36.034Z,22.65
2023-02-03T17:09:38.385Z,27.30
2023-02-03T17:14:42.212Z,24.02
2023-02-03T17:19:44.724Z,23.23
2023-02-03T17:24:47.276Z,32.30
2023-02-03T17:29:51.107Z,25.45
2023-02-03T17:34:53.530Z,27.42
2023-02-03T17:55:56.601Z,31.88
2023-02-03T18:01:01.118Z,31.60
2023-02-03T18:06:04.765Z,28.73
2023-02-03T18:11:08.066Z,31.55
2023-02-03T18:16:14.910Z,32.97
2023-02-03T18:21:17.249Z,32.30
2023-02-03T18:26:22.079Z,36.00
2023-02-03T18:31:26.873Z,41.00
2023-02-03T18:36:30.170Z,39.03
2023-02-03T18:41:33.828Z,31.73
2023-02-03T18:46:38.465Z,29.25
2023-02-03T18:51:40.685Z,28.58
2023-02-03T18:56:42.877Z,30.45
2023-02-03T19:01:47.025Z,35.22
2023-02-03T19:06:50.208Z,27.83
2023-02-03T19:11:53.219Z,27.38
2023-02-03T19:16:57.261Z,28.35
2023-02-03T19:22:00.860Z,22.70
2023-02-03T19:27:04.727Z,25.75
2023-02-03T19:32:08.685Z,20.47
2023-02-03T19:37:12.165Z,25.73
2023-02-03T19:42:16.135Z,19.35
2023-02-03T19:47:22.199Z,23.73
2023-02-03T19:52:25.437Z,22.77
2023-02-03T19:57:27.782Z,26.83
2023-02-03T20:02:31.813Z,18.20
2023-02-03T20:07:35.172Z,16.75
2023-02-03T20:12:38.579Z,19.38
2023-02-03T20:17:43.080Z,21.58
2023-02-03T20:22:46.408Z,19.50
2023-02-03T20:27:49.433Z,20.88
2023-02-03T20:32:53.852Z,22.55
2023-02-03T20:37:57.090Z,21.20
2023-02-03T20:43:00.691Z,17.55
2023-02-03T20:48:10.225Z,20.73
2023-02-03T20:53:15.410Z,20.70
2023-02-03T20:58:21.972Z,20.65
2023-02-03T21:03:26.950Z,25.60
2023-02-03T21:08:29.601Z,22.63
2023-02-03T21:13:36.203Z,23.63
2023-02-03T21:18:48.550Z,30.05
2023-02-03T21:23:53.170Z,20.15
2023-02-03T21:28:57.980Z,17.38
2023-02-03T21:34:06.679Z,19.20
2023-02-03T21:39:29.262Z,17.93
2023-02-03T21:44:34.848Z,23.45
2023-02-03T21:49:38.588Z,23.23
2023-02-03T21:54:42.246Z,30.90
2023-02-03T21:59:46.172Z,26.70
2023-02-03T22:04:51.083Z,24.20
2023-02-03T22:09:53.388Z,23.50
2023-02-03T22:14:55.635Z,17.98
2023-02-03T22:19:59.271Z,24.25
2023-02-03T22:25:02.351Z,23.98
2023-02-03T22:30:06.368Z,28.37
2023-02-03T22:35:10.528Z,20.23
2023-02-03T22:40:13.481Z,23.00
2023-02-03T22:45:16.179Z,26.45
2023-02-03T22:50:34.323Z,23.13
2023-02-03T22:55:38.783Z,22.03
2023-02-03T23:00:40.920Z,14.90
2023-02-03T23:05:44.421Z,16.45
2023-02-03T23:10:46.556Z,15.38
2023-02-03T23:15:48.840Z,16.75
2023-02-03T23:20:52.554Z,16.90
2023-02-03T23:25:54.687Z,16.15
2023-02-03T23:30:56.873Z,14.57
2023-02-03T23:36:00.402Z,15.70
2023-02-03T23:41:02.529Z,12.75
2023-02-03T23:46:05.101Z,21.40
2023-02-03T23:51:08.833Z,15.23
2023-02-03T23:56:11.016Z,15.45
